Time;durP1;ratioP1;P1;durP2;ratioP2;P2;SDS_P1;SDS_P2;PMS_P1;PMS_P2;Temp;Humidity;BMP_temperature;BMP_pressure;BME280_temperature;BME280_humidity;BME280_pressure;Samples;Min_cycle;Max_cycle;Signal;HPM_P1;HPM_P2
2021/07/09 00:01:19;;;;;;;;;5.50;4.00;;;;;21.55;51.47;101876.91;4886182;29;45765;-67
2021/07/09 00:03:45;;;;;;;;;3.00;3.00;;;;;21.55;52.04;101876.91;4886083;29;45337;-67
2021/07/09 00:06:10;;;;;;;;;5.00;3.50;;;;;21.57;51.91;101880.41;4886131;29;45318;-67
2021/07/09 00:08:36;;;;;;;;;5.25;4.00;;;;;21.56;51.64;101876.81;4892555;29;45422;-67
2021/07/09 00:11:02;;;;;;;;;3.25;3.25;;;;;21.57;52.04;101885.84;4893772;29;45382;-67
2021/07/09 00:13:27;;;;;;;;;3.75;2.75;;;;;21.55;52.06;101874.19;4892103;29;45628;-67
2021/07/09 00:15:52;;;;;;;;;6.75;4.75;;;;;21.54;52.23;101884.19;4895041;29;45476;-67
2021/07/09 00:18:18;;;;;;;;;5.50;5.50;;;;;21.53;52.45;101878.84;4893873;29;45322;-67
2021/07/09 00:20:44;;;;;;;;;8.75;7.75;;;;;21.49;52.03;101878.16;4897517;28;47087;-67
2021/07/09 00:23:09;;;;;;;;;5.00;5.00;;;;;21.49;52.04;101875.44;4887492;29;45361;-68
2021/07/09 00:25:36;;;;;;;;;4.00;3.25;;;;;21.46;52.56;101870.16;4878281;29;45265;-67
2021/07/09 00:28:02;;;;;;;;;5.00;5.00;;;;;21.45;52.90;101879.25;4893567;29;45475;-67
2021/07/09 00:30:28;;;;;;;;;5.75;5.75;;;;;21.46;52.08;101876.44;4897840;29;45335;-67
2021/07/09 00:32:53;;;;;;;;;3.00;3.00;;;;;21.43;52.75;101868.50;4892738;29;45320;-70
2021/07/09 00:35:18;;;;;;;;;5.25;4.50;;;;;21.40;52.25;101857.84;4885749;29;45470;-67
2021/07/09 00:37:44;;;;;;;;;4.50;4.50;;;;;21.43;52.38;101860.38;4885695;29;45430;-67
2021/07/09 00:40:10;;;;;;;;;5.75;4.75;;;;;21.40;53.06;101863.25;4889598;29;46669;-67
2021/07/09 00:42:35;;;;;;;;;2.50;2.50;;;;;21.39;53.11;101866.06;4886928;29;45364;-67
2021/07/09 00:45:03;;;;;;;;;7.00;5.00;;;;;21.31;52.75;101863.81;4898362;29;45303;-67
2021/07/09 00:47:29;;;;;;;;;5.25;4.75;;;;;21.37;52.88;101877.03;4904403;29;45234;-67
2021/07/09 00:49:54;;;;;;;;;3.25;3.25;;;;;21.33;53.15;101872.72;4896610;29;45600;-67
2021/07/09 00:52:19;;;;;;;;;3.50;3.25;;;;;21.31;52.64;101873.81;4877192;29;45824;-67
2021/07/09 00:54:45;;;;;;;;;4.00;4.00;;;;;21.30;53.00;101872.94;4885425;29;45452;-67
2021/07/09 00:57:13;;;;;;;;;3.75;3.75;;;;;21.28;53.24;101872.13;4885005;29;47367;-67
2021/07/09 00:59:38;;;;;;;;;4.00;4.00;;;;;21.26;53.18;101883.06;4898336;29;45520;-67
2021/07/09 01:02:04;;;;;;;;;4.50;4.50;;;;;21.26;53.62;101887.66;4893921;29;45340;-67
2021/07/09 01:04:30;;;;;;;;;5.00;3.25;;;;;21.24;53.19;101884.16;4885085;29;45277;-67
2021/07/09 01:06:56;;;;;;;;;6.00;5.50;;;;;21.17;53.09;101877.34;4889515;29;45312;-67
2021/07/09 01:09:21;;;;;;;;;6.25;4.50;;;;;21.25;52.96;101885.88;4890253;29;46139;-67
2021/07/09 01:11:50;;;;;;;;;4.50;4.50;;;;;21.19;53.50;101881.69;4893756;29;45215;-67
2021/07/09 01:14:17;;;;;;;;;6.00;5.00;;;;;21.21;53.17;101885.19;4883731;29;45583;-67
2021/07/09 01:16:43;;;;;;;;;8.25;6.25;;;;;21.23;53.20;101885.09;4896341;28;45284;-67
2021/07/09 01:19:14;;;;;;;;;5.00;5.00;;;;;21.23;53.51;101879.66;4899089;29;45474;-67
2021/07/09 01:21:41;;;;;;;;;5.25;5.25;;;;;21.20;53.55;101886.19;4884866;29;45635;-67
2021/07/09 01:24:08;;;;;;;;;5.00;5.00;;;;;21.21;53.00;101879.75;4884968;29;45397;-67
2021/07/09 01:26:34;;;;;;;;;4.25;4.25;;;;;21.21;53.46;101898.78;4888694;29;45259;-67
2021/07/09 01:28:59;;;;;;;;;4.25;4.25;;;;;21.21;53.68;101900.63;4884743;29;45250;-67
2021/07/09 01:31:25;;;;;;;;;5.50;5.50;;;;;21.16;53.62;101897.31;4891816;29;45483;-67
2021/07/09 01:33:50;;;;;;;;;4.25;4.00;;;;;21.18;53.41;101898.09;4890326;29;45366;-67
2021/07/09 01:36:18;;;;;;;;;5.50;5.00;;;;;21.21;53.36;101906.06;4884164;29;45285;-67
2021/07/09 01:38:43;;;;;;;;;6.75;5.50;;;;;21.19;53.22;101898.00;4888065;29;45225;-67
2021/07/09 01:41:08;;;;;;;;;4.00;4.00;;;;;21.19;53.46;101883.56;4892266;29;45367;-67
2021/07/09 01:43:34;;;;;;;;;7.50;6.00;;;;;21.16;53.79;101881.88;4884798;29;45385;-67
2021/07/09 01:46:00;;;;;;;;;5.00;5.00;;;;;21.16;53.41;101881.00;4876178;29;45544;-67
2021/07/09 01:48:25;;;;;;;;;7.00;6.00;;;;;21.14;54.03;101894.69;4884352;29;46169;-67
2021/07/09 01:50:51;;;;;;;;;6.75;6.00;;;;;21.09;53.71;101885.94;4891154;29;45378;-67
2021/07/09 01:53:16;;;;;;;;;5.50;5.50;;;;;21.07;54.16;101891.44;4884869;29;45429;-67
2021/07/09 01:55:42;;;;;;;;;5.75;5.25;;;;;21.07;53.91;101894.16;4884308;29;45460;-67
2021/07/09 01:58:07;;;;;;;;;6.50;6.00;;;;;21.08;54.30;101895.03;4884176;29;45399;-67
2021/07/09 02:00:33;;;;;;;;;5.25;5.25;;;;;21.07;53.79;101888.72;4886649;29;45298;-67
2021/07/09 02:02:58;;;;;;;;;4.00;4.00;;;;;21.07;54.00;101890.59;4884262;29;45374;-67
2021/07/09 02:05:24;;;;;;;;;5.25;5.25;;;;;21.03;53.98;101881.75;4884530;29;45492;-67
2021/07/09 02:07:56;;;;;;;;;6.50;6.50;;;;;20.99;54.06;101876.59;4890830;29;46108;-67
2021/07/09 02:10:34;;;;;;;;;7.50;5.25;;;;;20.94;54.28;101886.84;4896223;29;45581;-67
2021/07/09 02:13:00;;;;;;;;;6.00;6.00;;;;;20.86;54.60;101885.41;4896140;29;45754;-67
2021/07/09 02:15:30;;;;;;;;;6.50;6.50;;;;;20.83;54.77;101882.91;4890474;29;45413;-67
2021/07/09 02:17:56;;;;;;;;;7.00;7.00;;;;;20.80;54.47;101876.75;4895948;28;46047;-67
2021/07/09 02:20:24;;;;;;;;;5.25;5.00;;;;;20.80;54.58;101882.19;4898165;29;45369;-67
2021/07/09 02:22:50;;;;;;;;;7.50;6.25;;;;;20.82;54.28;101877.56;4884406;29;45290;-67
2021/07/09 02:25:16;;;;;;;;;7.00;7.00;;;;;20.81;54.73;101871.25;4887973;29;45540;-67
2021/07/09 02:27:44;;;;;;;;;4.75;4.75;;;;;20.82;54.64;101872.13;4883873;29;46256;-67
2021/07/09 02:30:12;;;;;;;;;7.00;7.00;;;;;20.81;55.03;101864.94;4890619;29;45309;-67
2021/07/09 02:32:38;;;;;;;;;6.50;5.25;;;;;20.80;54.79;101871.31;4885735;29;45355;-67
2021/07/09 02:35:05;;;;;;;;;7.75;7.00;;;;;20.82;55.06;101872.13;4892613;29;45600;-67
2021/07/09 02:37:30;;;;;;;;;7.00;5.25;;;;;20.81;54.90;101868.53;4884050;29;46763;-67
2021/07/09 02:39:56;;;;;;;;;6.75;5.00;;;;;20.81;54.78;101867.66;4888148;29;45253;-67
2021/07/09 02:42:21;;;;;;;;;7.75;5.00;;;;;20.78;54.67;101860.59;4887858;29;45434;-67
2021/07/09 02:44:47;;;;;;;;;7.75;6.75;;;;;20.78;54.85;101860.59;4885809;29;45381;-67
2021/07/09 02:47:12;;;;;;;;;6.00;6.00;;;;;20.82;54.95;101870.28;4902630;29;46077;-67
2021/07/09 02:49:38;;;;;;;;;6.25;5.00;;;;;20.81;54.94;101867.66;4889091;29;45280;-67
2021/07/09 02:52:04;;;;;;;;;10.00;6.50;;;;;20.79;55.01;101864.16;4892393;29;45491;-67
2021/07/09 02:54:29;;;;;;;;;5.50;3.75;;;;;20.77;55.20;101858.81;4890169;29;45502;-67
2021/07/09 02:56:54;;;;;;;;;5.00;5.00;;;;;20.74;55.32;101853.56;4886678;29;45383;-67
2021/07/09 02:59:20;;;;;;;;;4.75;4.75;;;;;20.76;55.37;101867.91;4890968;29;45468;-67
2021/07/09 03:01:45;;;;;;;;;7.00;5.75;;;;;20.76;55.07;101864.34;4887145;29;45377;-67
2021/07/09 03:04:12;;;;;;;;;7.00;7.00;;;;;20.71;55.11;101853.75;4886677;29;45438;-67
2021/07/09 03:06:38;;;;;;;;;6.50;5.75;;;;;20.72;55.12;101856.38;4895375;29;46265;-67
2021/07/09 03:09:08;;;;;;;;;6.25;6.00;;;;;20.78;55.18;101866.00;4892455;29;45427;-67
2021/07/09 03:11:34;;;;;;;;;7.50;6.00;;;;;20.76;54.90;101857.06;4886942;29;45281;-67
2021/07/09 03:14:00;;;;;;;;;10.00;9.25;;;;;20.73;54.97;101857.22;4886769;29;45340;-67
2021/07/09 03:16:27;;;;;;;;;6.25;6.25;;;;;20.69;55.40;101856.53;4903644;28;46206;-67
2021/07/09 03:18:52;;;;;;;;;7.00;5.75;;;;;20.69;55.18;101855.69;4891507;29;45332;-67
2021/07/09 03:21:17;;;;;;;;;6.00;6.00;;;;;20.68;55.31;101854.81;4896713;29;45312;-67
2021/07/09 03:23:43;;;;;;;;;11.50;8.25;;;;;20.61;55.25;101836.22;4886502;29;45306;-67
2021/07/09 03:26:08;;;;;;;;;6.75;6.75;;;;;20.65;55.40;101849.56;4890314;29;45406;-67
2021/07/09 03:28:33;;;;;;;;;8.25;6.25;;;;;20.64;55.70;101849.63;4887091;29;45471;-67
2021/07/09 03:30:59;;;;;;;;;6.50;5.00;;;;;20.59;55.94;101849.00;4886787;29;45306;-67
2021/07/09 03:33:24;;;;;;;;;6.50;6.50;;;;;20.61;55.20;101853.34;4900471;28;45288;-67
2021/07/09 03:35:52;;;;;;;;;7.25;7.25;;;;;20.58;55.58;101842.72;4904099;29;48354;-67
2021/07/09 03:38:18;;;;;;;;;9.00;6.50;;;;;20.52;55.99;101838.50;4889106;29;45558;-67
2021/07/09 03:40:43;;;;;;;;;9.50;8.25;;;;;20.57;55.74;101842.78;4894458;29;45453;-67
2021/07/09 03:43:09;;;;;;;;;6.75;6.75;;;;;20.56;55.67;101844.59;4898795;29;45297;-67
2021/07/09 03:45:34;;;;;;;;;6.25;6.00;;;;;20.50;55.59;101844.97;4886414;29;46089;-67
2021/07/09 03:47:59;;;;;;;;;7.00;5.25;;;;;20.48;55.67;101845.06;4886312;29;45363;-67
2021/07/09 03:50:25;;;;;;;;;6.00;6.00;;;;;20.50;55.71;101851.28;4892117;29;45595;-67
2021/07/09 03:52:50;;;;;;;;;8.25;5.25;;;;;20.48;56.05;101864.06;4888550;29;45322;-67
2021/07/09 03:55:16;;;;;;;;;6.00;6.00;;;;;20.43;56.04;101848.97;4895195;29;45541;-67
2021/07/09 03:57:41;;;;;;;;;7.75;7.75;;;;;20.41;56.43;101853.63;4898462;29;45333;-67
2021/07/09 04:00:09;;;;;;;;;5.50;4.50;;;;;20.43;55.82;101855.31;4888189;29;45418;-67
2021/07/09 04:02:34;;;;;;;;;6.50;5.50;;;;;20.40;56.33;101850.03;4898298;29;45389;-67
2021/07/09 04:05:00;;;;;;;;;7.00;6.50;;;;;20.40;56.20;101860.00;4897660;29;45323;-67
2021/07/09 04:07:25;;;;;;;;;8.50;7.50;;;;;20.35;56.08;101853.00;4897050;29;45223;-67
2021/07/09 04:09:50;;;;;;;;;4.25;4.25;;;;;20.39;56.45;101858.25;4886962;29;45302;-67
2021/07/09 04:12:16;;;;;;;;;9.50;8.00;;;;;20.38;56.52;101861.94;4890195;29;45190;-67
2021/07/09 04:14:41;;;;;;;;;6.50;6.50;;;;;20.32;56.41;101855.88;4886578;29;46045;-67
2021/07/09 04:17:06;;;;;;;;;8.00;8.00;;;;;20.26;56.53;101848.09;4890165;29;50898;-67
2021/07/09 04:19:32;;;;;;;;;6.25;5.25;;;;;20.28;56.45;101856.13;4885808;29;45555;-67
2021/07/09 04:21:57;;;;;;;;;6.75;6.75;;;;;20.25;56.44;101857.19;4888196;29;45294;-67
2021/07/09 04:24:22;;;;;;;;;7.25;6.25;;;;;20.22;56.83;101853.78;4885763;29;45424;-67
2021/07/09 04:26:48;;;;;;;;;6.25;5.50;;;;;20.22;56.81;101864.63;4889407;29;45440;-67
2021/07/09 04:29:13;;;;;;;;;7.50;7.50;;;;;20.15;56.71;101854.13;4885943;29;45422;-67
2021/07/09 04:31:38;;;;;;;;;6.00;6.00;;;;;20.21;56.98;101863.72;4896270;29;45294;-67
2021/07/09 04:34:04;;;;;;;;;6.00;6.00;;;;;20.19;56.92;101871.09;4900617;29;46093;-67
2021/07/09 04:36:30;;;;;;;;;7.75;6.75;;;;;20.17;56.91;101860.31;4902962;29;45584;-67
2021/07/09 04:38:55;;;;;;;;;6.00;5.00;;;;;20.17;57.23;101860.31;4885890;29;45352;-67
2021/07/09 04:41:20;;;;;;;;;6.50;6.00;;;;;20.15;57.06;101856.81;4889217;29;45372;-67
2021/07/09 04:43:46;;;;;;;;;6.00;6.00;;;;;20.23;57.08;101875.38;4885393;29;45412;-67
2021/07/09 04:46:11;;;;;;;;;6.00;6.00;;;;;20.25;56.82;101878.88;4885556;29;45472;-67
2021/07/09 04:48:37;;;;;;;;;6.75;6.50;;;;;20.26;56.78;101880.63;4885554;29;45331;-67
2021/07/09 04:51:02;;;;;;;;;6.25;6.25;;;;;20.28;57.05;101878.72;4885329;29;45385;-67
2021/07/09 04:53:28;;;;;;;;;6.25;6.25;;;;;20.30;56.92;101882.22;4885406;29;45339;-67
2021/07/09 04:55:54;;;;;;;;;6.75;6.00;;;;;20.29;57.00;101869.59;4886690;29;45676;-67
2021/07/09 04:58:19;;;;;;;;;8.75;7.00;;;;;20.32;56.95;101874.88;4897999;29;45300;-67
2021/07/09 05:00:44;;;;;;;;;6.00;6.00;;;;;20.27;56.97;101862.53;4885285;29;45330;-67
2021/07/09 05:03:10;;;;;;;;;9.50;7.00;;;;;20.27;57.07;101866.13;4884749;29;46169;-67
2021/07/09 05:05:35;;;;;;;;;6.50;6.00;;;;;20.33;57.45;101879.34;4890692;29;45242;-67
2021/07/09 05:08:00;;;;;;;;;12.00;10.25;;;;;20.22;57.27;101865.50;4891594;29;45193;-67
2021/07/09 05:10:26;;;;;;;;;8.00;7.00;;;;;20.32;57.49;101877.56;4888333;29;45178;-67
2021/07/09 05:12:51;;;;;;;;;10.50;8.00;;;;;20.28;57.43;101873.31;4901672;29;45272;-66
2021/07/09 05:15:16;;;;;;;;;10.50;8.25;;;;;20.30;57.11;101871.38;4901032;29;45149;-66
2021/07/09 05:17:42;;;;;;;;;8.50;8.25;;;;;20.33;57.16;101879.34;4883907;29;45282;-67
2021/07/09 05:20:08;;;;;;;;;8.25;8.00;;;;;20.32;57.10;101874.00;4884884;29;45324;-66
2021/07/09 05:22:34;;;;;;;;;7.25;7.25;;;;;20.34;57.83;101878.34;4884897;29;45200;-67
2021/07/09 05:25:00;;;;;;;;;9.25;7.75;;;;;20.36;57.32;101881.88;4888477;29;45382;-66
2021/07/09 05:27:30;;;;;;;;;5.75;5.00;;;;;20.32;56.94;101880.28;4889593;29;45388;-67
2021/07/09 05:29:55;;;;;;;;;9.00;9.00;;;;;20.37;57.56;101885.47;4892966;29;45417;-66
2021/07/09 05:32:23;;;;;;;;;11.00;7.25;;;;;20.36;57.18;101891.84;4896312;29;45418;-66
2021/07/09 05:34:50;;;;;;;;;7.75;7.50;;;;;20.32;57.30;101888.44;4896575;28;45615;-66
2021/07/09 05:37:16;;;;;;;;;11.25;9.25;;;;;20.29;57.96;101885.00;4884968;29;45513;-67
2021/07/09 05:39:42;;;;;;;;;8.75;8.25;;;;;20.32;57.59;101890.28;4884641;29;45452;-67
2021/07/09 05:42:07;;;;;;;;;8.00;8.00;;;;;20.33;57.91;101894.72;4891271;29;45491;-67
2021/07/09 05:44:32;;;;;;;;;10.00;9.75;;;;;20.34;57.62;101889.22;4898429;29;45363;-66
2021/07/09 05:46:58;;;;;;;;;9.25;7.50;;;;;20.35;57.68;101890.97;4898781;29;45923;-67
2021/07/09 05:49:24;;;;;;;;;10.25;10.00;;;;;20.36;57.68;101889.13;4892729;29;45614;-67
2021/07/09 05:51:49;;;;;;;;;13.50;12.00;;;;;20.39;57.54;101897.09;4900848;29;45528;-66
2021/07/09 05:54:15;;;;;;;;;10.00;9.00;;;;;20.34;56.87;101894.63;4898996;29;45450;-67
2021/07/09 05:56:40;;;;;;;;;10.25;9.50;;;;;20.32;57.55;101887.56;4891274;29;45734;-65
2021/07/09 05:59:06;;;;;;;;;8.00;7.75;;;;;20.33;57.64;101895.59;4893195;29;45495;-66
2021/07/09 06:01:31;;;;;;;;;10.25;9.25;;;;;20.35;57.68;101895.53;4884164;29;46410;-65
2021/07/09 06:03:58;;;;;;;;;11.00;9.75;;;;;20.38;57.52;101898.06;4884287;29;45328;-65
2021/07/09 06:06:23;;;;;;;;;9.75;7.50;;;;;20.39;57.34;101890.81;4886756;29;45599;-66
2021/07/09 06:08:48;;;;;;;;;9.75;9.25;;;;;20.47;57.28;101904.81;4898543;29;45459;-68
2021/07/09 06:11:14;;;;;;;;;9.75;9.00;;;;;20.50;57.20;101899.22;4897719;29;45436;-68
2021/07/09 06:13:39;;;;;;;;;10.00;9.75;;;;;20.47;57.40;101888.53;4883897;29;45349;-69
2021/07/09 06:16:04;;;;;;;;;12.75;8.50;;;;;20.46;57.43;101887.66;4884489;29;45243;-69
2021/07/09 06:18:30;;;;;;;;;7.75;7.75;;;;;20.54;57.51;101898.94;4902927;29;45530;-69
2021/07/09 06:20:55;;;;;;;;;10.75;9.25;;;;;20.54;57.44;101907.06;4885498;29;46247;-68
2021/07/09 06:23:21;;;;;;;;;10.00;8.50;;;;;20.54;57.32;101898.94;4885171;29;45407;-68
2021/07/09 06:25:46;;;;;;;;;9.75;9.75;;;;;20.54;57.40;101895.38;4893111;29;45625;-68
2021/07/09 06:28:12;;;;;;;;;10.00;9.00;;;;;20.55;57.29;101900.72;4887616;29;45334;-67
2021/07/09 06:30:37;;;;;;;;;8.25;8.00;;;;;20.55;57.50;101905.25;4892386;29;45243;-67
2021/07/09 06:33:03;;;;;;;;;9.75;8.75;;;;;20.58;57.44;101906.91;4890722;29;45538;-66
2021/07/09 06:35:29;;;;;;;;;15.50;11.75;;;;;20.61;57.26;101913.03;4880479;29;45523;-67
2021/07/09 06:37:57;;;;;;;;;10.00;9.00;;;;;20.61;56.91;101906.75;4887031;29;45548;-69
2021/07/09 06:40:23;;;;;;;;;10.00;9.00;;;;;20.65;57.70;101913.81;4888165;29;47185;-68
2021/07/09 06:42:49;;;;;;;;;10.25;9.25;;;;;20.65;57.20;101914.66;4892369;29;45175;-68
2021/07/09 06:45:14;;;;;;;;;7.50;7.50;;;;;20.67;57.09;101918.16;4885060;29;45558;-67
2021/07/09 06:47:40;;;;;;;;;10.25;8.00;;;;;20.69;57.40;101920.78;4887164;29;45498;-67
2021/07/09 06:50:05;;;;;;;;;10.00;8.75;;;;;20.70;57.23;101914.41;4884859;29;46707;-67
2021/07/09 06:52:31;;;;;;;;;10.25;9.75;;;;;20.70;57.34;101917.13;4897104;29;45464;-66
2021/07/09 06:54:56;;;;;;;;;12.00;10.00;;;;;20.76;57.16;101922.19;4894983;29;45498;-66
2021/07/09 06:57:21;;;;;;;;;10.75;9.25;;;;;20.77;56.86;101923.09;4889840;29;45553;-66
2021/07/09 06:59:47;;;;;;;;;11.50;11.50;;;;;20.78;56.95;101922.09;4899896;29;46351;-66
2021/07/09 07:02:12;;;;;;;;;9.25;8.75;;;;;20.73;57.43;101919.63;4895030;29;45470;-66
2021/07/09 07:04:38;;;;;;;;;12.25;10.00;;;;;20.72;57.36;101926.91;4893315;29;45409;-67
2021/07/09 07:07:04;;;;;;;;;9.75;9.75;;;;;20.66;56.91;101904.69;4872754;29;45383;-67
2021/07/09 07:09:32;;;;;;;;;9.25;8.75;;;;;20.79;57.33;101926.56;4895117;29;45450;-66
2021/07/09 07:12:01;;;;;;;;;10.00;9.00;;;;;20.79;56.99;101915.72;4895866;29;45587;-67
2021/07/09 07:14:30;;;;;;;;;12.25;10.50;;;;;20.85;56.89;101918.97;4891303;29;45460;-66
2021/07/09 07:16:56;;;;;;;;;10.50;9.50;;;;;20.85;56.79;101921.69;4903904;29;45391;-67
2021/07/09 07:19:21;;;;;;;;;11.25;10.75;;;;;20.86;56.48;101923.41;4900756;29;45287;-66
2021/07/09 07:21:46;;;;;;;;;11.75;10.75;;;;;20.84;56.52;101933.47;4891391;29;45228;-67
2021/07/09 07:24:11;;;;;;;;;7.50;6.25;;;;;20.79;56.30;101927.44;4886520;29;45306;-67
2021/07/09 07:26:37;;;;;;;;;11.25;10.25;;;;;20.86;56.93;101930.69;4892422;29;45416;-67
2021/07/09 07:29:03;;;;;;;;;12.50;12.50;;;;;20.88;56.92;101929.66;4885908;29;46873;-67
2021/07/09 07:31:28;;;;;;;;;9.00;9.00;;;;;20.84;57.13;101921.75;4905305;29;45305;-66
2021/07/09 07:33:54;;;;;;;;;11.50;11.00;;;;;20.89;57.22;101928.66;4887845;29;45404;-67
2021/07/09 07:36:19;;;;;;;;;10.25;9.00;;;;;20.89;57.04;101919.66;4885691;29;45199;-67
2021/07/09 07:38:46;;;;;;;;;12.75;9.25;;;;;20.88;56.72;101931.47;4886073;29;45408;-74
2021/07/09 07:41:12;;;;;;;;;12.25;12.25;;;;;20.85;56.65;101913.53;4890140;29;45546;-67
2021/07/09 07:43:37;;;;;;;;;12.75;11.00;;;;;20.87;57.38;101913.44;4887662;29;45449;-70
2021/07/09 07:46:03;;;;;;;;;13.25;10.25;;;;;20.92;57.13;101924.91;4886205;29;45345;-68
2021/07/09 07:48:28;;;;;;;;;14.00;13.25;;;;;20.94;56.83;101925.69;4885661;29;45421;-68
2021/07/09 07:50:53;;;;;;;;;8.75;8.75;;;;;20.91;57.17;101918.63;4879020;29;45419;-68
2021/07/09 07:53:19;;;;;;;;;10.50;9.25;;;;;20.95;57.23;101923.84;4900119;29;45313;-68
2021/07/09 07:55:44;;;;;;;;;10.50;10.50;;;;;20.95;56.47;101926.56;4894672;29;45483;-69
2021/07/09 07:58:09;;;;;;;;;8.00;8.00;;;;;20.88;56.59;101907.03;4899579;29;56775;-68
2021/07/09 08:00:35;;;;;;;;;9.50;7.50;;;;;20.94;56.43;101920.25;4886086;29;45316;-68
2021/07/09 08:03:00;;;;;;;;;12.00;10.75;;;;;21.02;56.89;101922.56;4885578;29;45448;-67
2021/07/09 08:05:26;;;;;;;;;12.50;10.25;;;;;20.98;56.76;101916.44;4886081;29;45330;-66
2021/07/09 08:07:51;;;;;;;;;9.00;8.00;;;;;21.02;56.54;101920.69;4902390;29;45343;-66
2021/07/09 08:10:17;;;;;;;;;8.50;8.25;;;;;21.02;56.09;101918.00;4892679;29;45333;-66
2021/07/09 08:12:42;;;;;;;;;12.00;10.25;;;;;21.07;56.20;101926.75;4885644;29;45367;-66
2021/07/09 08:15:07;;;;;;;;;9.75;9.25;;;;;;;;4885679;29;45435;-66
2021/07/09 08:17:33;;;;;;;;;8.00;8.00;;;;;21.05;55.82;101920.53;4885166;29;45516;-66
2021/07/09 08:19:58;;;;;;;;;8.25;8.25;;;;;21.05;56.05;101917.81;4885408;29;45251;-66
2021/07/09 08:22:23;;;;;;;;;8.25;8.25;;;;;21.02;55.72;101908.97;4885316;29;45834;-67
2021/07/09 08:24:49;;;;;;;;;9.50;7.50;;;;;21.05;55.65;101912.38;4887119;28;45214;-68
2021/07/09 08:27:15;;;;;;;;;9.75;8.00;;;;;21.01;55.39;101899.94;4898850;29;45279;-69
2021/07/09 08:29:40;;;;;;;;;8.50;8.25;;;;;21.10;55.58;101909.41;4885398;29;45415;-67
2021/07/09 08:32:06;;;;;;;;;8.25;7.00;;;;;21.08;55.81;101906.78;4887696;29;45350;-68
2021/07/09 08:34:32;;;;;;;;;9.75;8.25;;;;;21.10;55.71;101909.41;4894632;29;45317;-68
2021/07/09 08:36:57;;;;;;;;;9.75;9.50;;;;;21.07;55.27;101904.16;4886857;29;45515;-67
2021/07/09 08:39:22;;;;;;;;;10.50;8.00;;;;;21.07;55.73;101905.03;4893797;29;45268;-67
2021/07/09 08:41:48;;;;;;;;;6.75;6.00;;;;;21.10;55.38;101903.97;4895543;29;45381;-68
2021/07/09 08:44:14;;;;;;;;;9.00;9.00;;;;;21.10;55.25;101893.13;4892499;28;45589;-67
2021/07/09 08:46:41;;;;;;;;;8.50;8.50;;;;;21.12;55.16;101898.44;4900993;29;46531;-67
2021/07/09 08:49:14;;;;;;;;;6.25;6.25;;;;;21.12;54.94;101895.72;4897376;29;45356;-67
2021/07/09 08:51:42;;;;;;;;;10.00;8.25;;;;;21.15;55.42;101892.81;4897702;29;45374;-67
2021/07/09 08:54:15;;;;;;;;;8.00;8.00;;;;;21.18;55.42;101898.94;4888682;28;45307;-67
2021/07/09 08:56:40;;;;;;;;;7.50;7.50;;;;;21.21;55.07;101889.75;4896493;29;46207;-67
2021/07/09 08:59:06;;;;;;;;;8.25;8.25;;;;;21.23;54.79;101887.81;4886603;28;45225;-67
2021/07/09 09:02:01;;;;;;;;;9.50;8.50;;;;;21.25;54.82;101891.31;4887029;29;45395;-67
2021/07/09 09:04:29;;;;;;;;;10.25;9.25;;;;;21.23;54.68;101888.72;4885905;29;45418;-67
2021/07/09 09:07:06;;;;;;;;;8.25;7.25;;;;;21.23;54.86;101895.97;4899660;29;46204;-67
2021/07/09 09:09:33;;;;;;;;;8.50;7.00;;;;;21.24;55.08;101890.44;4886818;28;45544;-67
2021/07/09 09:12:12;;;;;;;;;10.25;10.00;;;;;21.26;55.40;101888.50;4903706;29;45240;-67
2021/07/09 09:14:41;;;;;;;;;8.75;7.75;;;;;21.29;55.06;101885.63;4896580;29;45459;-67
2021/07/09 09:17:28;;;;;;;;;11.00;9.50;;;;;21.32;55.59;101894.53;4889576;29;46202;-68
2021/07/09 09:20:13;;;;;;;;;8.00;8.00;;;;;21.32;55.07;101891.81;4898803;29;46114;-67
2021/07/09 09:22:48;;;;;;;;;13.50;13.50;;;;;21.33;55.47;101891.72;4884806;29;45312;-67
2021/07/09 09:25:14;;;;;;;;;9.50;7.75;;;;;21.38;55.10;101886.03;4889632;29;45432;-67
2021/07/09 09:27:39;;;;;;;;;9.00;7.25;;;;;21.41;55.01;101886.72;4889579;29;45941;-67
2021/07/09 09:30:11;;;;;;;;;9.50;7.50;;;;;21.44;55.15;101891.97;4898998;28;45529;-67
2021/07/09 09:32:50;;;;;;;;;8.25;7.00;;;;;21.46;54.44;101892.75;4895318;29;45642;-67
2021/07/09 09:35:30;;;;;;;;;9.00;7.75;;;;;21.48;54.94;101894.53;4901569;29;45287;-67
2021/07/09 09:37:58;;;;;;;;;7.00;7.00;;;;;21.50;54.17;101898.03;4902080;29;46212;-67
2021/07/09 09:40:26;;;;;;;;;9.50;7.50;;;;;21.53;55.11;101896.00;4884389;29;45502;-68
2021/07/09 09:42:52;;;;;;;;;7.00;6.50;;;;;21.53;54.61;101890.56;4900851;28;45329;-67
2021/07/09 09:45:19;;;;;;;;;6.00;4.25;;;;;21.52;55.22;101888.84;4895824;29;45228;-68
2021/07/09 09:47:45;;;;;;;;;6.00;6.00;;;;;21.54;54.95;101900.47;4884052;29;46114;-68
2021/07/09 09:50:15;;;;;;;;;8.25;7.00;;;;;21.58;54.71;101893.00;4900858;29;45433;-68
2021/07/09 09:52:49;;;;;;;;;6.00;6.00;;;;;21.59;53.87;101895.63;4894557;29;45358;-68
2021/07/09 09:55:21;;;;;;;;;6.00;6.00;;;;;21.59;54.05;101894.78;4902100;29;45514;-68
2021/07/09 09:57:47;;;;;;;;;4.50;4.50;;;;;21.58;54.40;101893.88;4885483;29;46487;-67
2021/07/09 10:00:16;;;;;;;;;7.00;6.00;;;;;21.57;53.82;101896.72;4898803;29;45530;-69
2021/07/09 10:02:44;;;;;;;;;8.50;7.50;;;;;21.54;54.21;101895.06;4888857;28;45662;-68
2021/07/09 10:05:10;;;;;;;;;6.00;6.00;;;;;21.52;53.83;101891.56;4884209;29;45519;-67
2021/07/09 10:07:36;;;;;;;;;6.25;5.25;;;;;21.52;53.74;101888.84;4888172;29;45559;-68
2021/07/09 10:10:03;;;;;;;;;3.00;2.25;;;;;21.53;54.05;101887.00;4888511;29;45563;-68
2021/07/09 10:12:30;;;;;;;;;5.25;4.00;;;;;21.53;53.75;101879.69;4885827;29;45364;-68
2021/07/09 10:14:56;;;;;;;;;8.75;7.75;;;;;21.58;54.85;101883.00;4903195;29;45383;-67
2021/07/09 10:17:26;;;;;;;;;7.25;6.25;;;;;21.60;54.08;101880.19;4895157;29;46561;-67
2021/07/09 10:19:53;;;;;;;;;6.00;6.00;;;;;21.62;53.88;101870.13;4884317;29;45490;-68
2021/07/09 10:22:19;;;;;;;;;8.25;7.00;;;;;21.64;54.45;101879.94;4889595;29;45491;-67
2021/07/09 10:24:48;;;;;;;;;5.75;5.75;;;;;21.68;54.20;101882.47;4895489;29;45489;-67
2021/07/09 10:27:18;;;;;;;;;5.75;5.75;;;;;21.70;53.89;101884.13;4884528;29;46179;-67
2021/07/09 10:29:45;;;;;;;;;6.00;5.25;;;;;21.69;53.62;101882.38;4902751;29;45640;-68
2021/07/09 10:32:11;;;;;;;;;7.25;5.50;;;;;21.71;53.28;101887.72;4885725;29;45376;-68
2021/07/09 10:34:48;;;;;;;;;7.25;7.00;;;;;21.69;53.88;101871.50;4883687;29;45297;-67
2021/07/09 10:37:22;;;;;;;;;7.00;5.50;;;;;21.78;53.39;101879.06;4895154;29;48565;-67
2021/07/09 10:39:49;;;;;;;;;5.00;4.25;;;;;21.82;53.25;101872.50;4887782;29;45261;-67
2021/07/09 10:42:31;;;;;;;;;9.75;8.25;;;;;21.87;54.20;101876.75;4892485;29;45360;-67
2021/07/09 10:45:02;;;;;;;;;7.25;7.00;;;;;21.91;54.26;101878.34;4883948;29;45515;-66
2021/07/09 10:47:48;;;;;;;;;8.75;7.75;;;;;21.90;53.29;101872.03;4894857;29;46177;-66
2021/07/09 10:50:36;;;;;;;;;8.50;6.00;;;;;21.96;53.76;101874.34;4886510;29;45444;-67
2021/07/09 10:53:05;;;;;;;;;6.75;6.75;;;;;21.99;53.28;101873.28;4901936;29;45269;-67
2021/07/09 10:55:32;;;;;;;;;5.00;5.00;;;;;22.00;53.43;101870.47;4896051;28;45480;-67
2021/07/09 10:58:06;;;;;;;;;5.75;5.75;;;;;22.01;53.33;101874.94;4896985;29;46440;-67
2021/07/09 11:00:41;;;;;;;;;5.00;5.00;;;;;22.03;52.58;101863.97;4891598;29;45285;-67
2021/07/09 11:03:07;;;;;;;;;4.50;4.50;;;;;22.04;53.06;101862.13;4883396;29;45303;-67
2021/07/09 11:05:42;;;;;;;;;7.00;7.00;;;;;22.12;53.22;101863.38;4900946;29;45523;-67
2021/07/09 11:08:35;;;;;;;;;5.75;5.75;;;;;22.17;52.70;101853.09;4888196;29;46103;-67
2021/07/09 11:11:06;;;;;;;;;6.50;6.25;;;;;22.21;52.48;101851.91;4886436;29;45425;-67
2021/07/09 11:13:41;;;;;;;;;3.75;3.75;;;;;22.25;52.53;101854.44;4886096;29;46098;-67
2021/07/09 11:16:24;;;;;;;;;5.50;4.25;;;;;22.27;52.69;101852.47;4886458;29;45514;-67
2021/07/09 11:19:07;;;;;;;;;6.50;5.50;;;;;22.31;52.38;101845.94;4893343;29;46358;-67
2021/07/09 11:21:33;;;;;;;;;8.25;5.25;;;;;22.35;52.63;101828.41;4901312;29;45758;-67
2021/07/09 11:24:10;;;;;;;;;5.50;5.25;;;;;22.37;52.57;101823.78;4893367;29;45659;-67